sensor_id;sensor_type;location;lat;lon;timestamp;temperature;humidity
18153;DHT22;9202;51.578;7.734;2022-07-09T00:01:25;17.00;99.90
18153;DHT22;9202;51.578;7.734;2022-07-09T00:03:29;17.10;99.90
18153;DHT22;9202;51.578;7.734;2022-07-09T00:05:32;17.00;99.90
18153;DHT22;9202;51.578;7.734;2022-07-09T00:07:36;17.10;99.90
18153;DHT22;9202;51.578;7.734;2022-07-09T00:09:40;17.10;99.90
18153;DHT22;9202;51.578;7.734;2022-07-09T00:11:43;17.20;99.90
18153;DHT22;9202;51.578;7.734;2022-07-09T00:13:47;17.20;99.90
18153;DHT22;9202;51.578;7.734;2022-07-09T00:15:50;17.10;99.90
18153;DHT22;9202;51.578;7.734;2022-07-09T00:17:55;17.10;99.90
18153;DHT22;9202;51.578;7.734;2022-07-09T00:19:59;17.00;99.90
18153;DHT22;9202;51.578;7.734;2022-07-09T00:22:05;17.00;99.90
18153;DHT22;9202;51.578;7.734;2022-07-09T00:24:09;17.10;99.90
18153;DHT22;9202;51.578;7.734;2022-07-09T00:26:13;17.10;99.90
18153;DHT22;9202;51.578;7.734;2022-07-09T00:28:16;17.00;99.90
18153;DHT22;9202;51.578;7.734;2022-07-09T00:30:20;17.00;99.90
18153;DHT22;9202;51.578;7.734;2022-07-09T00:32:23;17.00;99.90
18153;DHT22;9202;51.578;7.734;2022-07-09T00:34:27;17.00;99.90
18153;DHT22;9202;51.578;7.734;2022-07-09T00:36:31;17.00;99.90
18153;DHT22;9202;51.578;7.734;2022-07-09T00:38:34;17.00;99.90
18153;DHT22;9202;51.578;7.734;2022-07-09T00:40:39;17.00;99.90
18153;DHT22;9202;51.578;7.734;2022-07-09T00:42:42;17.00;99.90
18153;DHT22;9202;51.578;7.734;2022-07-09T00:44:46;16.90;99.90
18153;DHT22;9202;51.578;7.734;2022-07-09T00:49:07;16.70;99.90
18153;DHT22;9202;51.578;7.734;2022-07-09T00:51:12;16.70;99.90
18153;DHT22;9202;51.578;7.734;2022-07-09T00:53:17;16.70;99.90
18153;DHT22;9202;51.578;7.734;2022-07-09T00:55:22;16.70;99.90
18153;DHT22;9202;51.578;7.734;2022-07-09T00:57:26;16.70;99.90
18153;DHT22;9202;51.578;7.734;2022-07-09T00:59:30;16.60;99.90
18153;DHT22;9202;51.578;7.734;2022-07-09T01:01:35;16.60;99.90
18153;DHT22;9202;51.578;7.734;2022-07-09T01:03:39;16.70;99.90
18153;DHT22;9202;51.578;7.734;2022-07-09T01:05:43;16.70;99.90
18153;DHT22;9202;51.578;7.734;2022-07-09T01:07:46;16.70;99.90
18153;DHT22;9202;51.578;7.734;2022-07-09T01:09:50;16.60;99.90
18153;DHT22;9202;51.578;7.734;2022-07-09T01:11:54;16.60;99.90
18153;DHT22;9202;51.578;7.734;2022-07-09T01:13:58;16.60;99.90
18153;DHT22;9202;51.578;7.734;2022-07-09T01:16:02;16.50;99.90
18153;DHT22;9202;51.578;7.734;2022-07-09T01:18:10;16.40;99.90
18153;DHT22;9202;51.578;7.734;2022-07-09T01:20:14;16.40;99.90
18153;DHT22;9202;51.578;7.734;2022-07-09T01:22:17;16.30;99.90
18153;DHT22;9202;51.578;7.734;2022-07-09T01:24:23;16.20;99.90
18153;DHT22;9202;51.578;7.734;2022-07-09T01:26:27;16.20;99.90
18153;DHT22;9202;51.578;7.734;2022-07-09T01:28:31;16.10;99.90
18153;DHT22;9202;51.578;7.734;2022-07-09T01:30:36;16.10;99.90
18153;DHT22;9202;51.578;7.734;2022-07-09T01:32:40;16.10;99.90
18153;DHT22;9202;51.578;7.734;2022-07-09T01:34:43;16.10;99.90
18153;DHT22;9202;51.578;7.734;2022-07-09T01:36:47;16.00;99.90
18153;DHT22;9202;51.578;7.734;2022-07-09T01:38:51;16.00;99.90
18153;DHT22;9202;51.578;7.734;2022-07-09T01:40:54;16.00;99.90
18153;DHT22;9202;51.578;7.734;2022-07-09T01:42:58;16.00;99.90
18153;DHT22;9202;51.578;7.734;2022-07-09T01:45:01;15.90;99.90
18153;DHT22;9202;51.578;7.734;2022-07-09T01:47:05;15.90;99.90
18153;DHT22;9202;51.578;7.734;2022-07-09T01:49:09;15.90;99.90
18153;DHT22;9202;51.578;7.734;2022-07-09T01:51:13;16.00;99.90
18153;DHT22;9202;51.578;7.734;2022-07-09T01:53:18;15.90;99.90
18153;DHT22;9202;51.578;7.734;2022-07-09T01:55:21;15.90;99.90
18153;DHT22;9202;51.578;7.734;2022-07-09T01:57:25;15.90;99.90
18153;DHT22;9202;51.578;7.734;2022-07-09T02:01:46;15.90;99.90
18153;DHT22;9202;51.578;7.734;2022-07-09T02:03:50;15.90;99.90
18153;DHT22;9202;51.578;7.734;2022-07-09T02:05:54;15.90;99.90
18153;DHT22;9202;51.578;7.734;2022-07-09T02:07:58;15.90;99.90
18153;DHT22;9202;51.578;7.734;2022-07-09T02:10:02;15.90;99.90
18153;DHT22;9202;51.578;7.734;2022-07-09T02:12:07;16.00;99.90
18153;DHT22;9202;51.578;7.734;2022-07-09T02:14:11;15.90;99.90
18153;DHT22;9202;51.578;7.734;2022-07-09T02:16:15;15.90;99.90
18153;DHT22;9202;51.578;7.734;2022-07-09T02:18:18;15.90;99.90
18153;DHT22;9202;51.578;7.734;2022-07-09T02:20:22;15.80;99.90
18153;DHT22;9202;51.578;7.734;2022-07-09T02:22:26;15.70;99.90
18153;DHT22;9202;51.578;7.734;2022-07-09T02:26:46;15.70;99.90
18153;DHT22;9202;51.578;7.734;2022-07-09T02:28:49;15.70;99.90
18153;DHT22;9202;51.578;7.734;2022-07-09T02:30:53;15.70;99.90
18153;DHT22;9202;51.578;7.734;2022-07-09T02:32:57;15.70;99.90
18153;DHT22;9202;51.578;7.734;2022-07-09T02:35:00;15.70;99.90
18153;DHT22;9202;51.578;7.734;2022-07-09T02:37:05;15.70;99.90
18153;DHT22;9202;51.578;7.734;2022-07-09T02:39:08;15.60;99.90
18153;DHT22;9202;51.578;7.734;2022-07-09T02:41:12;15.50;99.90
18153;DHT22;9202;51.578;7.734;2022-07-09T02:43:16;15.40;99.90
18153;DHT22;9202;51.578;7.734;2022-07-09T02:45:20;15.30;99.90
18153;DHT22;9202;51.578;7.734;2022-07-09T02:47:23;15.20;99.90
18153;DHT22;9202;51.578;7.734;2022-07-09T02:49:27;15.10;99.90
18153;DHT22;9202;51.578;7.734;2022-07-09T02:51:31;15.10;99.90
18153;DHT22;9202;51.578;7.734;2022-07-09T02:53:34;15.00;99.90
18153;DHT22;9202;51.578;7.734;2022-07-09T02:55:38;14.90;99.90
18153;DHT22;9202;51.578;7.734;2022-07-09T02:59:57;14.90;99.90
18153;DHT22;9202;51.578;7.734;2022-07-09T03:02:02;14.80;99.90
18153;DHT22;9202;51.578;7.734;2022-07-09T03:04:06;14.90;99.90
18153;DHT22;9202;51.578;7.734;2022-07-09T03:06:09;15.00;99.90
18153;DHT22;9202;51.578;7.734;2022-07-09T03:08:13;15.10;99.90
18153;DHT22;9202;51.578;7.734;2022-07-09T03:10:17;15.10;99.90
18153;DHT22;9202;51.578;7.734;2022-07-09T03:12:20;15.10;99.90
18153;DHT22;9202;51.578;7.734;2022-07-09T03:14:24;15.20;99.90
18153;DHT22;9202;51.578;7.734;2022-07-09T03:16:27;15.30;99.90
18153;DHT22;9202;51.578;7.734;2022-07-09T03:18:31;15.40;99.90
18153;DHT22;9202;51.578;7.734;2022-07-09T03:20:36;15.50;99.90
18153;DHT22;9202;51.578;7.734;2022-07-09T03:22:40;15.60;99.90
18153;DHT22;9202;51.578;7.734;2022-07-09T03:26:59;15.60;99.90
18153;DHT22;9202;51.578;7.734;2022-07-09T03:29:03;15.80;99.90
18153;DHT22;9202;51.578;7.734;2022-07-09T03:31:06;15.90;99.90
18153;DHT22;9202;51.578;7.734;2022-07-09T03:33:10;16.00;99.90
18153;DHT22;9202;51.578;7.734;2022-07-09T03:35:14;16.10;99.90
18153;DHT22;9202;51.578;7.734;2022-07-09T03:37:18;16.10;99.90
18153;DHT22;9202;51.578;7.734;2022-07-09T03:39:21;16.20;99.90
18153;DHT22;9202;51.578;7.734;2022-07-09T03:41:25;16.20;99.90
18153;DHT22;9202;51.578;7.734;2022-07-09T03:43:29;16.20;99.90
18153;DHT22;9202;51.578;7.734;2022-07-09T03:45:32;16.30;99.90
18153;DHT22;9202;51.578;7.734;2022-07-09T03:49:53;16.40;99.90
18153;DHT22;9202;51.578;7.734;2022-07-09T03:51:56;16.40;99.90
18153;DHT22;9202;51.578;7.734;2022-07-09T03:54:02;16.50;99.90
18153;DHT22;9202;51.578;7.734;2022-07-09T03:56:07;16.50;99.90
18153;DHT22;9202;51.578;7.734;2022-07-09T03:58:10;16.50;99.90
18153;DHT22;9202;51.578;7.734;2022-07-09T04:02:32;16.70;99.90
18153;DHT22;9202;51.578;7.734;2022-07-09T04:04:36;16.70;99.90
18153;DHT22;9202;51.578;7.734;2022-07-09T04:08:56;16.70;99.90
18153;DHT22;9202;51.578;7.734;2022-07-09T04:10:59;16.70;99.90
18153;DHT22;9202;51.578;7.734;2022-07-09T04:13:03;16.70;99.90
18153;DHT22;9202;51.578;7.734;2022-07-09T04:15:07;16.70;99.90
18153;DHT22;9202;51.578;7.734;2022-07-09T04:17:11;16.70;99.90
18153;DHT22;9202;51.578;7.734;2022-07-09T04:19:15;16.70;99.90
18153;DHT22;9202;51.578;7.734;2022-07-09T04:21:18;16.80;99.90
18153;DHT22;9202;51.578;7.734;2022-07-09T04:23:24;16.80;99.90
18153;DHT22;9202;51.578;7.734;2022-07-09T04:25:29;16.80;99.90
18153;DHT22;9202;51.578;7.734;2022-07-09T04:27:33;16.90;99.90
18153;DHT22;9202;51.578;7.734;2022-07-09T04:31:54;16.90;99.90
18153;DHT22;9202;51.578;7.734;2022-07-09T04:33:58;17.00;99.90
18153;DHT22;9202;51.578;7.734;2022-07-09T04:36:03;17.00;99.90
18153;DHT22;9202;51.578;7.734;2022-07-09T04:38:07;17.00;99.90
18153;DHT22;9202;51.578;7.734;2022-07-09T04:40:12;16.90;99.90
18153;DHT22;9202;51.578;7.734;2022-07-09T04:42:16;17.00;99.90
18153;DHT22;9202;51.578;7.734;2022-07-09T04:44:19;17.10;99.90
18153;DHT22;9202;51.578;7.734;2022-07-09T04:46:23;17.10;99.90
18153;DHT22;9202;51.578;7.734;2022-07-09T04:48:28;17.00;99.90
18153;DHT22;9202;51.578;7.734;2022-07-09T04:50:31;17.10;99.90
18153;DHT22;9202;51.578;7.734;2022-07-09T04:52:35;17.10;99.90
18153;DHT22;9202;51.578;7.734;2022-07-09T04:54:39;17.20;99.90
18153;DHT22;9202;51.578;7.734;2022-07-09T04:59:00;17.10;99.90
18153;DHT22;9202;51.578;7.734;2022-07-09T05:01:05;17.20;99.90
18153;DHT22;9202;51.578;7.734;2022-07-09T05:03:09;17.10;99.90
18153;DHT22;9202;51.578;7.734;2022-07-09T05:05:13;17.10;99.90
18153;DHT22;9202;51.578;7.734;2022-07-09T05:07:17;17.10;99.90
18153;DHT22;9202;51.578;7.734;2022-07-09T05:09:20;17.10;99.90
18153;DHT22;9202;51.578;7.734;2022-07-09T05:11:24;17.20;99.90
18153;DHT22;9202;51.578;7.734;2022-07-09T05:13:28;17.20;99.90
18153;DHT22;9202;51.578;7.734;2022-07-09T05:15:31;17.30;99.90
18153;DHT22;9202;51.578;7.734;2022-07-09T05:17:36;17.20;99.90
18153;DHT22;9202;51.578;7.734;2022-07-09T05:19:40;17.20;99.90
18153;DHT22;9202;51.578;7.734;2022-07-09T05:21:44;17.20;99.90
18153;DHT22;9202;51.578;7.734;2022-07-09T05:23:47;17.20;99.90
18153;DHT22;9202;51.578;7.734;2022-07-09T05:25:51;17.20;99.90
18153;DHT22;9202;51.578;7.734;2022-07-09T05:27:55;17.10;99.90
18153;DHT22;9202;51.578;7.734;2022-07-09T05:29:58;17.20;99.90
18153;DHT22;9202;51.578;7.734;2022-07-09T05:32:02;17.30;99.90
18153;DHT22;9202;51.578;7.734;2022-07-09T05:34:06;17.30;99.90
18153;DHT22;9202;51.578;7.734;2022-07-09T05:36:10;17.20;99.90
18153;DHT22;9202;51.578;7.734;2022-07-09T05:38:14;17.30;99.90
18153;DHT22;9202;51.578;7.734;2022-07-09T05:40:18;17.40;99.90
18153;DHT22;9202;51.578;7.734;2022-07-09T05:44:38;17.40;99.90
18153;DHT22;9202;51.578;7.734;2022-07-09T05:46:42;17.30;99.90
18153;DHT22;9202;51.578;7.734;2022-07-09T05:48:45;17.40;99.90
18153;DHT22;9202;51.578;7.734;2022-07-09T05:50:49;17.50;99.90
18153;DHT22;9202;51.578;7.734;2022-07-09T05:52:53;17.40;99.90
18153;DHT22;9202;51.578;7.734;2022-07-09T05:54:57;17.40;99.90
18153;DHT22;9202;51.578;7.734;2022-07-09T05:57:06;17.50;99.90
18153;DHT22;9202;51.578;7.734;2022-07-09T05:59:11;17.50;99.90
18153;DHT22;9202;51.578;7.734;2022-07-09T06:01:17;17.50;99.90
18153;DHT22;9202;51.578;7.734;2022-07-09T06:05:46;17.70;99.90
18153;DHT22;9202;51.578;7.734;2022-07-09T06:07:50;17.70;99.90
18153;DHT22;9202;51.578;7.734;2022-07-09T06:09:55;17.70;99.90
18153;DHT22;9202;51.578;7.734;2022-07-09T06:14:18;17.80;99.90
18153;DHT22;9202;51.578;7.734;2022-07-09T06:16:27;17.80;99.90
18153;DHT22;9202;51.578;7.734;2022-07-09T06:18:33;17.90;99.90
18153;DHT22;9202;51.578;7.734;2022-07-09T06:20:41;18.00;99.90
18153;DHT22;9202;51.578;7.734;2022-07-09T06:22:52;17.90;99.90
18153;DHT22;9202;51.578;7.734;2022-07-09T06:24:58;18.10;99.90
18153;DHT22;9202;51.578;7.734;2022-07-09T06:27:02;18.20;99.90
18153;DHT22;9202;51.578;7.734;2022-07-09T06:29:06;18.30;99.90
18153;DHT22;9202;51.578;7.734;2022-07-09T06:31:09;18.20;99.90
18153;DHT22;9202;51.578;7.734;2022-07-09T06:33:13;18.20;99.90
18153;DHT22;9202;51.578;7.734;2022-07-09T06:35:17;18.20;99.90
18153;DHT22;9202;51.578;7.734;2022-07-09T06:37:21;18.20;99.90
18153;DHT22;9202;51.578;7.734;2022-07-09T06:39:24;18.10;99.90
18153;DHT22;9202;51.578;7.734;2022-07-09T06:44:03;18.20;99.90
18153;DHT22;9202;51.578;7.734;2022-07-09T06:46:07;18.20;99.90
18153;DHT22;9202;51.578;7.734;2022-07-09T06:48:10;18.10;99.90
18153;DHT22;9202;51.578;7.734;2022-07-09T06:50:14;18.10;99.90
18153;DHT22;9202;51.578;7.734;2022-07-09T06:52:18;18.20;99.90
18153;DHT22;9202;51.578;7.734;2022-07-09T06:54:21;18.20;99.90
18153;DHT22;9202;51.578;7.734;2022-07-09T06:56:25;18.20;99.90
18153;DHT22;9202;51.578;7.734;2022-07-09T06:58:29;18.20;99.90
18153;DHT22;9202;51.578;7.734;2022-07-09T07:00:32;18.30;99.90
18153;DHT22;9202;51.578;7.734;2022-07-09T07:02:36;18.30;99.90
18153;DHT22;9202;51.578;7.734;2022-07-09T07:04:40;18.40;99.90
18153;DHT22;9202;51.578;7.734;2022-07-09T07:06:44;18.40;99.90
18153;DHT22;9202;51.578;7.734;2022-07-09T07:08:49;18.50;99.90
18153;DHT22;9202;51.578;7.734;2022-07-09T07:10:53;18.60;99.90
18153;DHT22;9202;51.578;7.734;2022-07-09T07:12:56;18.60;99.90
18153;DHT22;9202;51.578;7.734;2022-07-09T07:15:00;18.60;99.90
18153;DHT22;9202;51.578;7.734;2022-07-09T07:17:05;18.60;99.90
18153;DHT22;9202;51.578;7.734;2022-07-09T07:21:32;18.80;99.90
18153;DHT22;9202;51.578;7.734;2022-07-09T07:23:38;18.80;99.90
18153;DHT22;9202;51.578;7.734;2022-07-09T07:25:43;19.00;99.90
18153;DHT22;9202;51.578;7.734;2022-07-09T07:27:48;19.10;99.90
18153;DHT22;9202;51.578;7.734;2022-07-09T07:29:53;19.00;99.90
18153;DHT22;9202;51.578;7.734;2022-07-09T07:31:57;19.10;99.90
18153;DHT22;9202;51.578;7.734;2022-07-09T07:36:19;19.10;99.90
18153;DHT22;9202;51.578;7.734;2022-07-09T07:38:23;19.30;99.90
18153;DHT22;9202;51.578;7.734;2022-07-09T07:40:29;19.20;99.90
18153;DHT22;9202;51.578;7.734;2022-07-09T07:42:33;19.10;99.90
18153;DHT22;9202;51.578;7.734;2022-07-09T07:44:37;19.20;99.90
18153;DHT22;9202;51.578;7.734;2022-07-09T07:46:40;19.30;99.90
18153;DHT22;9202;51.578;7.734;2022-07-09T07:48:44;19.50;99.90
18153;DHT22;9202;51.578;7.734;2022-07-09T07:50:48;19.70;99.90
18153;DHT22;9202;51.578;7.734;2022-07-09T07:52:51;19.70;99.90
18153;DHT22;9202;51.578;7.734;2022-07-09T07:54:55;19.90;99.90
18153;DHT22;9202;51.578;7.734;2022-07-09T07:56:59;20.00;99.90
18153;DHT22;9202;51.578;7.734;2022-07-09T08:01:20;19.90;99.90
18153;DHT22;9202;51.578;7.734;2022-07-09T08:03:25;19.90;99.90
18153;DHT22;9202;51.578;7.734;2022-07-09T08:05:31;20.00;99.90
18153;DHT22;9202;51.578;7.734;2022-07-09T08:07:35;20.10;99.90
18153;DHT22;9202;51.578;7.734;2022-07-09T08:09:38;20.10;99.90
18153;DHT22;9202;51.578;7.734;2022-07-09T08:11:42;20.20;99.90
18153;DHT22;9202;51.578;7.734;2022-07-09T08:13:45;20.40;99.90
18153;DHT22;9202;51.578;7.734;2022-07-09T08:15:49;20.30;99.90
18153;DHT22;9202;51.578;7.734;2022-07-09T08:17:53;20.30;99.90
18153;DHT22;9202;51.578;7.734;2022-07-09T08:19:56;20.20;99.90
18153;DHT22;9202;51.578;7.734;2022-07-09T08:22:00;20.20;99.90
18153;DHT22;9202;51.578;7.734;2022-07-09T08:24:04;20.30;99.90
18153;DHT22;9202;51.578;7.734;2022-07-09T08:28:26;20.90;99.90
18153;DHT22;9202;51.578;7.734;2022-07-09T08:30:30;20.80;99.90
18153;DHT22;9202;51.578;7.734;2022-07-09T08:32:33;20.80;99.90
18153;DHT22;9202;51.578;7.734;2022-07-09T08:34:37;20.80;99.90
18153;DHT22;9202;51.578;7.734;2022-07-09T08:38:58;20.90;99.90
18153;DHT22;9202;51.578;7.734;2022-07-09T08:41:05;21.10;99.90
18153;DHT22;9202;51.578;7.734;2022-07-09T08:43:10;21.10;99.90
18153;DHT22;9202;51.578;7.734;2022-07-09T08:47:31;21.40;99.90
18153;DHT22;9202;51.578;7.734;2022-07-09T08:49:39;21.40;99.90
18153;DHT22;9202;51.578;7.734;2022-07-09T08:51:45;21.50;99.90
18153;DHT22;9202;51.578;7.734;2022-07-09T08:53:49;21.50;99.90
18153;DHT22;9202;51.578;7.734;2022-07-09T08:58:10;21.30;99.90
18153;DHT22;9202;51.578;7.734;2022-07-09T09:00:15;21.20;99.90
18153;DHT22;9202;51.578;7.734;2022-07-09T09:02:18;21.10;99.90
18153;DHT22;9202;51.578;7.734;2022-07-09T09:04:23;21.20;99.90
18153;DHT22;9202;51.578;7.734;2022-07-09T09:06:27;21.20;99.90
18153;DHT22;9202;51.578;7.734;2022-07-09T09:08:34;21.20;99.90
18153;DHT22;9202;51.578;7.734;2022-07-09T09:10:44;21.40;99.90
18153;DHT22;9202;51.578;7.734;2022-07-09T09:15:07;22.00;99.90
18153;DHT22;9202;51.578;7.734;2022-07-09T09:17:12;22.20;99.90
18153;DHT22;9202;51.578;7.734;2022-07-09T09:19:15;22.10;99.90
18153;DHT22;9202;51.578;7.734;2022-07-09T09:21:20;22.00;99.90
18153;DHT22;9202;51.578;7.734;2022-07-09T09:23:24;22.10;99.90
18153;DHT22;9202;51.578;7.734;2022-07-09T09:25:28;22.10;99.90
18153;DHT22;9202;51.578;7.734;2022-07-09T09:27:32;22.20;99.90
18153;DHT22;9202;51.578;7.734;2022-07-09T09:29:35;22.30;99.90
18153;DHT22;9202;51.578;7.734;2022-07-09T09:31:41;22.50;99.90
18153;DHT22;9202;51.578;7.734;2022-07-09T09:33:44;22.60;99.90
18153;DHT22;9202;51.578;7.734;2022-07-09T09:35:48;22.70;99.90
18153;DHT22;9202;51.578;7.734;2022-07-09T09:37:52;22.70;99.90
18153;DHT22;9202;51.578;7.734;2022-07-09T09:39:56;22.50;99.90
18153;DHT22;9202;51.578;7.734;2022-07-09T09:42:01;22.30;99.90
18153;DHT22;9202;51.578;7.734;2022-07-09T09:46:22;22.40;99.90
18153;DHT22;9202;51.578;7.734;2022-07-09T09:48:27;22.40;99.90
18153;DHT22;9202;51.578;7.734;2022-07-09T09:52:50;22.10;99.90
18153;DHT22;9202;51.578;7.734;2022-07-09T09:54:55;21.90;99.90
18153;DHT22;9202;51.578;7.734;2022-07-09T09:56:59;21.90;99.90
18153;DHT22;9202;51.578;7.734;2022-07-09T09:59:03;21.90;99.90
18153;DHT22;9202;51.578;7.734;2022-07-09T10:01:07;22.00;99.90
18153;DHT22;9202;51.578;7.734;2022-07-09T10:03:12;21.90;99.90
18153;DHT22;9202;51.578;7.734;2022-07-09T10:05:16;21.90;99.90
18153;DHT22;9202;51.578;7.734;2022-07-09T10:07:20;22.00;99.90
18153;DHT22;9202;51.578;7.734;2022-07-09T10:09:23;22.00;99.90
18153;DHT22;9202;51.578;7.734;2022-07-09T10:11:38;22.00;99.90
18153;DHT22;9202;51.578;7.734;2022-07-09T10:13:54;21.90;99.90
18153;DHT22;9202;51.578;7.734;2022-07-09T10:18:18;22.10;99.90
18153;DHT22;9202;51.578;7.734;2022-07-09T10:20:31;22.10;99.90
18153;DHT22;9202;51.578;7.734;2022-07-09T10:22:37;22.20;99.90
18153;DHT22;9202;51.578;7.734;2022-07-09T10:27:04;22.20;99.90
18153;DHT22;9202;51.578;7.734;2022-07-09T10:31:42;22.20;99.90
18153;DHT22;9202;51.578;7.734;2022-07-09T10:33:49;22.20;99.90
18153;DHT22;9202;51.578;7.734;2022-07-09T10:35:53;22.10;99.90
18153;DHT22;9202;51.578;7.734;2022-07-09T10:37:57;22.20;99.90
18153;DHT22;9202;51.578;7.734;2022-07-09T10:40:12;22.30;99.90
18153;DHT22;9202;51.578;7.734;2022-07-09T10:42:19;22.20;99.90
18153;DHT22;9202;51.578;7.734;2022-07-09T10:44:27;22.20;99.90
18153;DHT22;9202;51.578;7.734;2022-07-09T10:46:31;22.20;99.90
18153;DHT22;9202;51.578;7.734;2022-07-09T10:48:36;22.20;99.90
18153;DHT22;9202;51.578;7.734;2022-07-09T10:50:42;22.10;99.90
18153;DHT22;9202;51.578;7.734;2022-07-09T10:52:46;22.10;99.90
18153;DHT22;9202;51.578;7.734;2022-07-09T10:54:49;22.10;99.90
18153;DHT22;9202;51.578;7.734;2022-07-09T10:56:54;22.10;99.90
18153;DHT22;9202;51.578;7.734;2022-07-09T10:58:57;22.10;99.90
18153;DHT22;9202;51.578;7.734;2022-07-09T11:01:02;22.20;99.90
18153;DHT22;9202;51.578;7.734;2022-07-09T11:03:07;22.20;99.90
18153;DHT22;9202;51.578;7.734;2022-07-09T11:05:10;22.20;99.90
18153;DHT22;9202;51.578;7.734;2022-07-09T11:07:20;22.30;99.90
18153;DHT22;9202;51.578;7.734;2022-07-09T11:09:26;22.20;99.90
18153;DHT22;9202;51.578;7.734;2022-07-09T11:11:32;22.20;99.90
18153;DHT22;9202;51.578;7.734;2022-07-09T11:13:36;22.30;99.90
18153;DHT22;9202;51.578;7.734;2022-07-09T11:15:40;22.30;99.90
18153;DHT22;9202;51.578;7.734;2022-07-09T11:17:44;22.20;99.90
18153;DHT22;9202;51.578;7.734;2022-07-09T11:19:48;22.20;99.90
18153;DHT22;9202;51.578;7.734;2022-07-09T11:22:00;22.30;99.90
18153;DHT22;9202;51.578;7.734;2022-07-09T11:24:14;22.40;99.90
18153;DHT22;9202;51.578;7.734;2022-07-09T11:26:18;22.60;99.90
18153;DHT22;9202;51.578;7.734;2022-07-09T11:30:42;23.00;99.90
18153;DHT22;9202;51.578;7.734;2022-07-09T11:32:46;23.10;99.90
18153;DHT22;9202;51.578;7.734;2022-07-09T11:34:50;23.10;99.90
18153;DHT22;9202;51.578;7.734;2022-07-09T11:36:56;23.00;99.90
18153;DHT22;9202;51.578;7.734;2022-07-09T11:39:00;22.90;99.90
18153;DHT22;9202;51.578;7.734;2022-07-09T11:43:18;23.00;99.90
18153;DHT22;9202;51.578;7.734;2022-07-09T11:47:39;23.20;99.90
18153;DHT22;9202;51.578;7.734;2022-07-09T11:49:44;23.50;99.90
18153;DHT22;9202;51.578;7.734;2022-07-09T11:54:05;23.90;99.90
18153;DHT22;9202;51.578;7.734;2022-07-09T11:58:24;24.00;99.90
18153;DHT22;9202;51.578;7.734;2022-07-09T12:02:44;23.70;99.90
18153;DHT22;9202;51.578;7.734;2022-07-09T12:04:48;23.50;99.90
18153;DHT22;9202;51.578;7.734;2022-07-09T12:06:52;23.50;99.90
18153;DHT22;9202;51.578;7.734;2022-07-09T12:11:27;23.30;99.90
18153;DHT22;9202;51.578;7.734;2022-07-09T12:15:47;22.90;99.90
18153;DHT22;9202;51.578;7.734;2022-07-09T12:17:54;22.70;99.90
18153;DHT22;9202;51.578;7.734;2022-07-09T12:19:59;22.40;99.90
18153;DHT22;9202;51.578;7.734;2022-07-09T12:24:21;22.20;99.90
18153;DHT22;9202;51.578;7.734;2022-07-09T12:28:40;22.10;99.90
18153;DHT22;9202;51.578;7.734;2022-07-09T12:33:01;22.00;99.90
18153;DHT22;9202;51.578;7.734;2022-07-09T12:37:23;22.00;99.90
18153;DHT22;9202;51.578;7.734;2022-07-09T12:41:41;22.00;99.90
18153;DHT22;9202;51.578;7.734;2022-07-09T12:45:59;21.90;99.90
18153;DHT22;9202;51.578;7.734;2022-07-09T12:50:23;21.90;99.90
18153;DHT22;9202;51.578;7.734;2022-07-09T12:52:26;21.80;99.90
18153;DHT22;9202;51.578;7.734;2022-07-09T12:56:49;21.70;99.90
18153;DHT22;9202;51.578;7.734;2022-07-09T12:58:54;21.60;99.90
18153;DHT22;9202;51.578;7.734;2022-07-09T13:00:58;21.60;99.90
18153;DHT22;9202;51.578;7.734;2022-07-09T13:05:17;21.60;99.90
18153;DHT22;9202;51.578;7.734;2022-07-09T13:09:35;21.60;99.90
18153;DHT22;9202;51.578;7.734;2022-07-09T13:13:55;21.60;99.90
18153;DHT22;9202;51.578;7.734;2022-07-09T13:15:59;21.80;99.90
18153;DHT22;9202;51.578;7.734;2022-07-09T13:20:19;22.30;99.90
18153;DHT22;9202;51.578;7.734;2022-07-09T13:22:23;22.50;99.90
18153;DHT22;9202;51.578;7.734;2022-07-09T13:26:43;22.60;99.90
18153;DHT22;9202;51.578;7.734;2022-07-09T13:28:47;22.60;99.90
18153;DHT22;9202;51.578;7.734;2022-07-09T13:30:51;22.60;99.90
18153;DHT22;9202;51.578;7.734;2022-07-09T13:32:54;22.50;99.90
18153;DHT22;9202;51.578;7.734;2022-07-09T13:34:58;22.40;99.90
18153;DHT22;9202;51.578;7.734;2022-07-09T13:39:16;22.20;99.90
18153;DHT22;9202;51.578;7.734;2022-07-09T13:41:20;22.20;99.90
18153;DHT22;9202;51.578;7.734;2022-07-09T13:43:24;22.00;99.90
18153;DHT22;9202;51.578;7.734;2022-07-09T13:45:30;21.80;99.90
18153;DHT22;9202;51.578;7.734;2022-07-09T13:49:49;21.80;99.90
18153;DHT22;9202;51.578;7.734;2022-07-09T13:51:53;21.80;99.90
18153;DHT22;9202;51.578;7.734;2022-07-09T13:53:56;21.80;99.90
18153;DHT22;9202;51.578;7.734;2022-07-09T13:56:00;21.90;99.90
18153;DHT22;9202;51.578;7.734;2022-07-09T13:58:03;22.00;99.90
18153;DHT22;9202;51.578;7.734;2022-07-09T14:02:24;22.10;99.90
18153;DHT22;9202;51.578;7.734;2022-07-09T14:04:28;22.20;99.90
18153;DHT22;9202;51.578;7.734;2022-07-09T14:08:46;22.50;99.90
18153;DHT22;9202;51.578;7.734;2022-07-09T14:13:05;22.80;99.90
18153;DHT22;9202;51.578;7.734;2022-07-09T14:15:10;22.80;99.90
18153;DHT22;9202;51.578;7.734;2022-07-09T14:17:15;22.90;99.90
18153;DHT22;9202;51.578;7.734;2022-07-09T14:21:34;22.90;99.90
18153;DHT22;9202;51.578;7.734;2022-07-09T14:23:38;23.10;99.90
18153;DHT22;9202;51.578;7.734;2022-07-09T14:27:59;23.30;99.90
18153;DHT22;9202;51.578;7.734;2022-07-09T14:32:20;23.50;99.90
18153;DHT22;9202;51.578;7.734;2022-07-09T14:34:24;23.60;99.90
18153;DHT22;9202;51.578;7.734;2022-07-09T14:36:27;23.50;99.90
18153;DHT22;9202;51.578;7.734;2022-07-09T14:40:46;23.80;99.90
18153;DHT22;9202;51.578;7.734;2022-07-09T14:42:52;24.10;99.90
18153;DHT22;9202;51.578;7.734;2022-07-09T14:44:55;24.00;99.90
18153;DHT22;9202;51.578;7.734;2022-07-09T14:46:59;24.00;99.90
18153;DHT22;9202;51.578;7.734;2022-07-09T14:51:17;23.50;99.90
18153;DHT22;9202;51.578;7.734;2022-07-09T14:53:21;23.40;99.90
18153;DHT22;9202;51.578;7.734;2022-07-09T14:55:24;23.70;99.90
18153;DHT22;9202;51.578;7.734;2022-07-09T14:57:28;24.10;99.90
18153;DHT22;9202;51.578;7.734;2022-07-09T15:01:47;24.40;99.90
18153;DHT22;9202;51.578;7.734;2022-07-09T15:03:51;24.50;99.90
18153;DHT22;9202;51.578;7.734;2022-07-09T15:08:12;24.60;99.90
18153;DHT22;9202;51.578;7.734;2022-07-09T15:12:30;24.20;99.90
18153;DHT22;9202;51.578;7.734;2022-07-09T15:16:50;24.00;99.90
18153;DHT22;9202;51.578;7.734;2022-07-09T15:18:54;24.20;99.90
18153;DHT22;9202;51.578;7.734;2022-07-09T15:20:57;24.30;99.90
18153;DHT22;9202;51.578;7.734;2022-07-09T15:23:01;24.20;99.90
18153;DHT22;9202;51.578;7.734;2022-07-09T15:25:07;24.00;99.90
18153;DHT22;9202;51.578;7.734;2022-07-09T15:29:25;23.50;99.90
18153;DHT22;9202;51.578;7.734;2022-07-09T15:31:31;23.50;99.90
18153;DHT22;9202;51.578;7.734;2022-07-09T15:35:51;23.40;99.90
18153;DHT22;9202;51.578;7.734;2022-07-09T15:37:55;23.50;99.90
18153;DHT22;9202;51.578;7.734;2022-07-09T15:39:58;23.50;99.90
18153;DHT22;9202;51.578;7.734;2022-07-09T15:42:03;23.60;99.90
18153;DHT22;9202;51.578;7.734;2022-07-09T15:46:22;24.10;99.90